Pagrindinis puslapis
METAR-TAF:

METAR-TAF

Oro uostai :

Odiham, Anglija

platuma: 51-14N, ilguma: 000-57W, Aukštis: 123 m

Dabartinis oras

Ataskaita buvo paskelbta 1 valandą ir 15 minutes, ne 19:50 UTC
Vėjas 6 kt iš Vakarų
Temperatūra 1°C
Drėgmė 80%
Slėgis 997 hPa
Matomumas 10 km arba daugiau

METAR: EGVO 231950Z AUTO 27006KT 9999 NCD 01/M02 Q0997

Laikas: 21:05 (21:05 UTC)


TAF: trūkstamas

Orai ataskaitas ir orų prognozės (METAR, TAF).

turimą stotys yra geltonos ir raudonos taškus žemėlapyje.

Perkelti pele per norėdami pamatyti stoties vardą.

Tada spustelėkite, norėdami matyti oro stebėjimo ir prognozės.

Norėdami pakeisti žemėlapį: spustelėkite ant žalios mygtukų su juodo kryžiaus žemyn,; žalią mygtuką su brūkšneliu, jei norite nutolinti; arba žalių rodyklių gretimoms žemėlapius.


METAR-TAF: